sensor_id;sensor_type;location;lat;lon;timestamp;pressure;altitude;pressure_sealevel;temperature;humidity
66524;BME280;53350;52.210;5.160;2022-07-10T00:00:47;102807.75;;;18.07;58.02
66524;BME280;53350;52.210;5.160;2022-07-10T00:03:14;102807.75;;;18.06;57.91
66524;BME280;53350;52.210;5.160;2022-07-10T00:05:40;102808.75;;;17.99;58.14
66524;BME280;53350;52.210;5.160;2022-07-10T00:08:07;102803.50;;;18.00;58.27
66524;BME280;53350;52.210;5.160;2022-07-10T00:10:33;102795.69;;;17.99;58.17
66524;BME280;53350;52.210;5.160;2022-07-10T00:13:00;102795.78;;;17.91;58.28
66524;BME280;53350;52.210;5.160;2022-07-10T00:15:27;102806.13;;;17.96;58.27
66524;BME280;53350;52.210;5.160;2022-07-10T00:17:54;102802.66;;;17.97;58.10
66524;BME280;53350;52.210;5.160;2022-07-10T00:20:21;102793.97;;;17.98;58.01
66524;BME280;53350;52.210;5.160;2022-07-10T00:22:47;102792.28;;;17.94;58.04
66524;BME280;53350;52.210;5.160;2022-07-10T00:25:14;102789.69;;;17.92;58.10
66524;BME280;53350;52.210;5.160;2022-07-10T00:27:41;102788.81;;;17.87;57.99
66524;BME280;53350;52.210;5.160;2022-07-10T00:30:08;102798.47;;;17.80;58.16
66524;BME280;53350;52.210;5.160;2022-07-10T00:32:35;102798.53;;;17.77;58.25
66524;BME280;53350;52.210;5.160;2022-07-10T00:35:04;102796.75;;;17.78;58.18
66524;BME280;53350;52.210;5.160;2022-07-10T00:37:31;102797.59;;;17.80;58.33
66524;BME280;53350;52.210;5.160;2022-07-10T00:39:57;102800.19;;;17.81;58.34
66524;BME280;53350;52.210;5.160;2022-07-10T00:42:25;102808.03;;;17.80;58.15
66524;BME280;53350;52.210;5.160;2022-07-10T00:44:52;102800.19;;;17.80;58.12
66524;BME280;53350;52.210;5.160;2022-07-10T00:47:18;102800.19;;;17.80;58.01
66524;BME280;53350;52.210;5.160;2022-07-10T00:49:46;102797.59;;;17.80;57.52
66524;BME280;53350;52.210;5.160;2022-07-10T00:52:15;102798.53;;;17.76;57.71
66524;BME280;53350;52.210;5.160;2022-07-10T00:54:43;102789.88;;;17.70;57.80
66524;BME280;53350;52.210;5.160;2022-07-10T00:57:10;102790.78;;;17.68;57.67
66524;BME280;53350;52.210;5.160;2022-07-10T00:59:39;102789.03;;;17.67;57.94
66524;BME280;53350;52.210;5.160;2022-07-10T01:02:06;102780.38;;;17.66;57.80
66524;BME280;53350;52.210;5.160;2022-07-10T01:04:33;102784.69;;;17.70;57.81
66524;BME280;53350;52.210;5.160;2022-07-10T01:07:00;102788.13;;;17.72;57.67
66524;BME280;53350;52.210;5.160;2022-07-10T01:09:28;102787.22;;;17.77;57.61
66524;BME280;53350;52.210;5.160;2022-07-10T01:11:55;102787.16;;;17.81;57.58
66524;BME280;53350;52.210;5.160;2022-07-10T01:14:22;102779.31;;;17.84;57.43
66524;BME280;53350;52.210;5.160;2022-07-10T01:16:50;102772.34;;;17.86;57.38
66524;BME280;53350;52.210;5.160;2022-07-10T01:19:16;102768.88;;;17.86;57.32
66524;BME280;53350;52.210;5.160;2022-07-10T01:21:45;102770.59;;;17.85;57.52
66524;BME280;53350;52.210;5.160;2022-07-10T01:24:11;102770.56;;;17.87;57.60
66524;BME280;53350;52.210;5.160;2022-07-10T01:26:38;102769.69;;;17.89;57.55
66524;BME280;53350;52.210;5.160;2022-07-10T01:29:09;102760.13;;;17.93;57.57
66524;BME280;53350;52.210;5.160;2022-07-10T01:31:37;102761.78;;;17.97;57.65
66524;BME280;53350;52.210;5.160;2022-07-10T01:34:05;102755.72;;;17.97;57.73
66524;BME280;53350;52.210;5.160;2022-07-10T01:36:32;102756.59;;;17.99;57.70
66524;BME280;53350;52.210;5.160;2022-07-10T01:39:01;102752.19;;;18.01;57.75
66524;BME280;53350;52.210;5.160;2022-07-10T01:41:27;102749.63;;;17.99;57.87
66524;BME280;53350;52.210;5.160;2022-07-10T01:43:53;102743.56;;;17.99;58.06
66524;BME280;53350;52.210;5.160;2022-07-10T01:46:20;102749.66;;;17.96;58.48
66524;BME280;53350;52.210;5.160;2022-07-10T01:48:47;102743.63;;;17.89;58.69
66524;BME280;53350;52.210;5.160;2022-07-10T01:51:14;102753.25;;;17.83;58.97
66524;BME280;53350;52.210;5.160;2022-07-10T01:53:40;102755.06;;;17.78;59.12
66524;BME280;53350;52.210;5.160;2022-07-10T01:56:10;102754.25;;;17.71;59.51
66524;BME280;53350;52.210;5.160;2022-07-10T01:58:36;102759.50;;;17.69;59.80
66524;BME280;53350;52.210;5.160;2022-07-10T02:01:04;102753.41;;;17.70;59.80
66524;BME280;53350;52.210;5.160;2022-07-10T02:03:31;102756.88;;;17.71;60.07
66524;BME280;53350;52.210;5.160;2022-07-10T02:06:14;102744.75;;;17.65;60.01
66524;BME280;53350;52.210;5.160;2022-07-10T02:08:41;102733.50;;;17.63;60.24
66524;BME280;53350;52.210;5.160;2022-07-10T02:11:09;102740.47;;;17.60;60.43
66524;BME280;53350;52.210;5.160;2022-07-10T02:13:37;102742.22;;;17.61;60.50
66524;BME280;53350;52.210;5.160;2022-07-10T02:16:04;102739.59;;;17.61;60.53
66524;BME280;53350;52.210;5.160;2022-07-10T02:18:31;102742.22;;;17.61;60.35
66524;BME280;53350;52.210;5.160;2022-07-10T02:20:58;102741.38;;;17.59;60.62
66524;BME280;53350;52.210;5.160;2022-07-10T02:23:24;102729.25;;;17.56;60.69
66524;BME280;53350;52.210;5.160;2022-07-10T02:25:50;102734.41;;;17.61;60.70
66524;BME280;53350;52.210;5.160;2022-07-10T02:28:18;102726.53;;;17.64;60.74
66524;BME280;53350;52.210;5.160;2022-07-10T02:30:45;102730.06;;;17.60;60.67
66524;BME280;53350;52.210;5.160;2022-07-10T02:33:11;102735.34;;;17.53;61.00
66524;BME280;53350;52.210;5.160;2022-07-10T02:35:37;102732.75;;;17.53;61.14
66524;BME280;53350;52.210;5.160;2022-07-10T02:38:04;102724.88;;;17.56;61.20
66524;BME280;53350;52.210;5.160;2022-07-10T02:40:30;102730.06;;;17.58;60.99
66524;BME280;53350;52.210;5.160;2022-07-10T02:42:57;102737.00;;;17.61;60.92
66524;BME280;53350;52.210;5.160;2022-07-10T02:45:24;102735.25;;;17.64;60.92
66524;BME280;53350;52.210;5.160;2022-07-10T02:47:51;102726.50;;;17.67;60.84
66524;BME280;53350;52.210;5.160;2022-07-10T02:50:17;102728.19;;;17.71;60.85
66524;BME280;53350;52.210;5.160;2022-07-10T02:52:44;102736.00;;;17.71;60.82
66524;BME280;53350;52.210;5.160;2022-07-10T02:55:10;102734.28;;;17.71;60.82
66524;BME280;53350;52.210;5.160;2022-07-10T02:57:36;102736.91;;;17.71;60.86
66524;BME280;53350;52.210;5.160;2022-07-10T03:00:04;102737.78;;;17.69;60.88
66524;BME280;53350;52.210;5.160;2022-07-10T03:02:32;102734.31;;;17.68;60.89
66524;BME280;53350;52.210;5.160;2022-07-10T03:04:58;102731.72;;;17.68;60.88
66524;BME280;53350;52.210;5.160;2022-07-10T03:07:25;102735.19;;;17.69;60.88
66524;BME280;53350;52.210;5.160;2022-07-10T03:09:51;102734.28;;;17.71;60.93
66524;BME280;53350;52.210;5.160;2022-07-10T03:12:18;102724.72;;;17.72;60.85
66524;BME280;53350;52.210;5.160;2022-07-10T03:14:45;102721.22;;;17.75;60.81
66524;BME280;53350;52.210;5.160;2022-07-10T03:17:12;102731.63;;;17.75;60.52
66524;BME280;53350;52.210;5.160;2022-07-10T03:19:39;102725.53;;;17.74;60.48
66524;BME280;53350;52.210;5.160;2022-07-10T03:22:06;102726.44;;;17.75;60.53
66524;BME280;53350;52.210;5.160;2022-07-10T03:24:32;102720.31;;;17.74;60.57
66524;BME280;53350;52.210;5.160;2022-07-10T03:26:58;102722.97;;;17.72;60.62
66524;BME280;53350;52.210;5.160;2022-07-10T03:29:25;102722.09;;;17.72;60.70
66524;BME280;53350;52.210;5.160;2022-07-10T03:31:51;102720.34;;;17.72;60.83
66524;BME280;53350;52.210;5.160;2022-07-10T03:34:18;102718.63;;;17.73;60.71
66524;BME280;53350;52.210;5.160;2022-07-10T03:36:46;102718.66;;;17.71;60.96
66524;BME280;53350;52.210;5.160;2022-07-10T03:39:12;102717.75;;;17.76;60.90
66524;BME280;53350;52.210;5.160;2022-07-10T03:41:38;102722.03;;;17.77;60.71
66524;BME280;53350;52.210;5.160;2022-07-10T03:44:05;102722.91;;;17.79;60.72
66524;BME280;53350;52.210;5.160;2022-07-10T03:46:31;102720.28;;;17.80;60.69
66524;BME280;53350;52.210;5.160;2022-07-10T03:48:58;102712.47;;;17.80;60.87
66524;BME280;53350;52.210;5.160;2022-07-10T03:51:25;102708.94;;;17.81;60.65
66524;BME280;53350;52.210;5.160;2022-07-10T03:53:52;102706.34;;;17.81;60.76
66524;BME280;53350;52.210;5.160;2022-07-10T03:56:19;102703.72;;;17.83;60.83
66524;BME280;53350;52.210;5.160;2022-07-10T03:58:59;102700.22;;;17.84;60.72
66524;BME280;53350;52.210;5.160;2022-07-10T04:01:26;102702.00;;;17.83;60.80
66524;BME280;53350;52.210;5.160;2022-07-10T04:03:52;102704.59;;;17.83;60.78
66524;BME280;53350;52.210;5.160;2022-07-10T04:06:18;102712.41;;;17.85;60.79
66524;BME280;53350;52.210;5.160;2022-07-10T04:08:45;102704.53;;;17.88;60.91
66524;BME280;53350;52.210;5.160;2022-07-10T04:11:13;102706.25;;;17.89;60.72
66524;BME280;53350;52.210;5.160;2022-07-10T04:13:39;102705.38;;;17.90;60.72
66524;BME280;53350;52.210;5.160;2022-07-10T04:16:06;102705.38;;;17.93;60.62
66524;BME280;53350;52.210;5.160;2022-07-10T04:18:35;102703.63;;;17.94;60.63
66524;BME280;53350;52.210;5.160;2022-07-10T04:21:01;102710.53;;;17.96;60.65
66524;BME280;53350;52.210;5.160;2022-07-10T04:23:28;102702.69;;;17.98;60.43
66524;BME280;53350;52.210;5.160;2022-07-10T04:25:56;102701.88;;;17.93;60.47
66524;BME280;53350;52.210;5.160;2022-07-10T04:28:24;102709.69;;;17.94;60.58
66524;BME280;53350;52.210;5.160;2022-07-10T04:30:50;102694.03;;;17.94;60.55
66524;BME280;53350;52.210;5.160;2022-07-10T04:33:17;102702.78;;;17.92;60.49
66524;BME280;53350;52.210;5.160;2022-07-10T04:35:44;102700.19;;;17.92;60.59
66524;BME280;53350;52.210;5.160;2022-07-10T04:38:11;102699.25;;;17.94;60.78
66524;BME280;53350;52.210;5.160;2022-07-10T04:40:37;102707.91;;;17.98;60.70
66524;BME280;53350;52.210;5.160;2022-07-10T04:43:03;102701.75;;;18.03;60.78
66524;BME280;53350;52.210;5.160;2022-07-10T04:45:31;102713.00;;;18.07;60.54
66524;BME280;53350;52.210;5.160;2022-07-10T04:47:58;102704.28;;;18.08;60.62
66524;BME280;53350;52.210;5.160;2022-07-10T04:50:24;102697.50;;;17.98;61.02
66524;BME280;53350;52.210;5.160;2022-07-10T04:52:50;102715.59;;;18.07;60.78
66524;BME280;53350;52.210;5.160;2022-07-10T04:55:17;102706.00;;;18.11;60.74
66524;BME280;53350;52.210;5.160;2022-07-10T04:57:43;102699.88;;;18.13;60.69
66524;BME280;53350;52.210;5.160;2022-07-10T05:00:11;102708.53;;;18.15;60.69
66524;BME280;53350;52.210;5.160;2022-07-10T05:02:38;102712.91;;;18.13;60.78
66524;BME280;53350;52.210;5.160;2022-07-10T05:05:05;102716.38;;;18.14;60.83
66524;BME280;53350;52.210;5.160;2022-07-10T05:07:32;102716.38;;;18.15;60.84
66524;BME280;53350;52.210;5.160;2022-07-10T05:09:58;102710.25;;;18.18;60.87
66524;BME280;53350;52.210;5.160;2022-07-10T05:12:25;102710.22;;;18.21;60.81
66524;BME280;53350;52.210;5.160;2022-07-10T05:14:52;102712.81;;;18.21;60.84
66524;BME280;53350;52.210;5.160;2022-07-10T05:17:18;102722.31;;;18.27;60.88
66524;BME280;53350;52.210;5.160;2022-07-10T05:19:46;102714.41;;;18.31;60.99
66524;BME280;53350;52.210;5.160;2022-07-10T05:22:13;102715.22;;;18.33;60.84
66524;BME280;53350;52.210;5.160;2022-07-10T05:24:39;102718.69;;;18.35;60.76
66524;BME280;53350;52.210;5.160;2022-07-10T05:27:06;102714.41;;;18.31;60.87
66524;BME280;53350;52.210;5.160;2022-07-10T05:29:32;102719.69;;;18.27;60.96
66524;BME280;53350;52.210;5.160;2022-07-10T05:31:59;102716.16;;;18.29;60.98
66524;BME280;53350;52.210;5.160;2022-07-10T05:34:25;102716.16;;;18.31;61.12
66524;BME280;53350;52.210;5.160;2022-07-10T05:36:53;102721.31;;;18.35;60.89
66524;BME280;53350;52.210;5.160;2022-07-10T05:39:19;102716.09;;;18.35;60.98
66524;BME280;53350;52.210;5.160;2022-07-10T05:41:47;102710.75;;;18.41;60.87
66524;BME280;53350;52.210;5.160;2022-07-10T05:44:13;102715.13;;;18.41;60.77
66524;BME280;53350;52.210;5.160;2022-07-10T05:46:40;102710.75;;;18.41;60.84
66524;BME280;53350;52.210;5.160;2022-07-10T05:49:06;102709.88;;;18.42;60.84
66524;BME280;53350;52.210;5.160;2022-07-10T05:51:32;102717.78;;;18.38;61.04
66524;BME280;53350;52.210;5.160;2022-07-10T05:54:00;102715.31;;;18.29;61.40
66524;BME280;53350;52.210;5.160;2022-07-10T05:56:26;102714.50;;;18.25;61.57
66524;BME280;53350;52.210;5.160;2022-07-10T05:58:53;102715.34;;;18.25;61.50
66524;BME280;53350;52.210;5.160;2022-07-10T06:01:20;102711.06;;;18.21;61.63
66524;BME280;53350;52.210;5.160;2022-07-10T06:03:47;102715.50;;;18.16;61.73
66524;BME280;53350;52.210;5.160;2022-07-10T06:06:13;102719.00;;;18.14;61.84
66524;BME280;53350;52.210;5.160;2022-07-10T06:08:41;102718.94;;;18.17;61.86
66524;BME280;53350;52.210;5.160;2022-07-10T06:11:08;102717.16;;;18.19;61.97
66524;BME280;53350;52.210;5.160;2022-07-10T06:13:35;102715.41;;;18.21;61.80
66524;BME280;53350;52.210;5.160;2022-07-10T06:16:02;102721.50;;;18.20;61.88
66524;BME280;53350;52.210;5.160;2022-07-10T06:18:29;102720.69;;;18.18;61.91
66524;BME280;53350;52.210;5.160;2022-07-10T06:20:55;102714.53;;;18.22;61.77
66524;BME280;53350;52.210;5.160;2022-07-10T06:23:22;102715.34;;;18.25;61.95
66524;BME280;53350;52.210;5.160;2022-07-10T06:25:48;102724.06;;;18.24;61.86
66524;BME280;53350;52.210;5.160;2022-07-10T06:28:16;102719.69;;;18.27;61.76
66524;BME280;53350;52.210;5.160;2022-07-10T06:30:43;102727.59;;;18.22;61.80
66524;BME280;53350;52.210;5.160;2022-07-10T06:33:10;102731.88;;;18.24;61.92
66524;BME280;53350;52.210;5.160;2022-07-10T06:35:36;102720.50;;;18.30;61.98
66524;BME280;53350;52.210;5.160;2022-07-10T06:38:03;102725.63;;;18.38;61.63
66524;BME280;53350;52.210;5.160;2022-07-10T06:40:29;102720.31;;;18.42;61.51
66524;BME280;53350;52.210;5.160;2022-07-10T06:42:56;102720.25;;;18.47;61.40
66524;BME280;53350;52.210;5.160;2022-07-10T06:45:24;102723.63;;;18.54;61.50
66524;BME280;53350;52.210;5.160;2022-07-10T06:47:51;102722.66;;;18.59;61.39
66524;BME280;53350;52.210;5.160;2022-07-10T06:50:25;102721.72;;;18.64;60.98
66524;BME280;53350;52.210;5.160;2022-07-10T06:52:52;102715.69;;;18.60;61.01
66524;BME280;53350;52.210;5.160;2022-07-10T06:55:19;102720.94;;;18.60;60.64
66524;BME280;53350;52.210;5.160;2022-07-10T06:57:46;102725.25;;;18.63;60.61
66524;BME280;53350;52.210;5.160;2022-07-10T07:00:13;102718.31;;;18.60;60.48
66524;BME280;53350;52.210;5.160;2022-07-10T07:02:42;102725.19;;;18.66;60.55
66524;BME280;53350;52.210;5.160;2022-07-10T07:05:09;102722.56;;;18.66;60.65
66524;BME280;53350;52.210;5.160;2022-07-10T07:07:36;102730.34;;;18.69;60.54
66524;BME280;53350;52.210;5.160;2022-07-10T07:10:03;102725.88;;;18.77;60.28
66524;BME280;53350;52.210;5.160;2022-07-10T07:12:30;102725.81;;;18.80;60.09
66524;BME280;53350;52.210;5.160;2022-07-10T07:14:56;102722.34;;;18.80;60.24
66524;BME280;53350;52.210;5.160;2022-07-10T07:17:22;102724.97;;;18.78;60.13
66524;BME280;53350;52.210;5.160;2022-07-10T07:19:55;102722.34;;;18.80;60.17
66524;BME280;53350;52.210;5.160;2022-07-10T07:22:54;102718.75;;;18.87;60.29
66524;BME280;53350;52.210;5.160;2022-07-10T07:25:35;102722.94;;;18.97;60.02
66524;BME280;53350;52.210;5.160;2022-07-10T07:28:03;102714.16;;;19.01;59.97
66524;BME280;53350;52.210;5.160;2022-07-10T07:30:30;102723.72;;;19.02;60.09
66524;BME280;53350;52.210;5.160;2022-07-10T07:32:56;102724.53;;;19.06;59.90
66524;BME280;53350;52.210;5.160;2022-07-10T07:35:24;102720.03;;;19.14;59.70
66524;BME280;53350;52.210;5.160;2022-07-10T07:37:51;102719.84;;;19.25;59.56
66524;BME280;53350;52.210;5.160;2022-07-10T07:40:19;102717.00;;;19.37;59.16
66524;BME280;53350;52.210;5.160;2022-07-10T07:42:47;102721.38;;;19.37;59.20
66524;BME280;53350;52.210;5.160;2022-07-10T07:45:14;102715.16;;;19.42;58.74
66524;BME280;53350;52.210;5.160;2022-07-10T07:47:45;102718.50;;;19.49;58.62
66524;BME280;53350;52.210;5.160;2022-07-10T07:50:13;102727.94;;;19.56;58.18
66524;BME280;53350;52.210;5.160;2022-07-10T07:52:41;102727.03;;;19.59;58.23
66524;BME280;53350;52.210;5.160;2022-07-10T07:55:08;102733.06;;;19.61;58.30
66524;BME280;53350;52.210;5.160;2022-07-10T07:57:35;102736.50;;;19.64;57.70
66524;BME280;53350;52.210;5.160;2022-07-10T08:00:03;102734.00;;;19.58;57.65
66524;BME280;53350;52.210;5.160;2022-07-10T08:02:29;102733.06;;;19.62;57.66
66524;BME280;53350;52.210;5.160;2022-07-10T08:04:56;102738.28;;;19.61;57.69
66524;BME280;53350;52.210;5.160;2022-07-10T08:07:22;102735.69;;;19.62;57.55
66524;BME280;53350;52.210;5.160;2022-07-10T08:09:50;102734.72;;;19.65;57.74
66524;BME280;53350;52.210;5.160;2022-07-10T08:12:16;102732.22;;;19.60;57.69
66524;BME280;53350;52.210;5.160;2022-07-10T08:14:43;102735.66;;;19.64;57.87
66524;BME280;53350;52.210;5.160;2022-07-10T08:17:10;102724.97;;;19.75;57.92
66524;BME280;53350;52.210;5.160;2022-07-10T08:19:36;102713.41;;;19.87;57.60
66524;BME280;53350;52.210;5.160;2022-07-10T08:22:03;102720.25;;;19.92;57.76
66524;BME280;53350;52.210;5.160;2022-07-10T08:24:29;102718.28;;;20.04;57.13
66524;BME280;53350;52.210;5.160;2022-07-10T08:26:57;102718.88;;;20.17;56.88
66524;BME280;53350;52.210;5.160;2022-07-10T08:29:24;102708.38;;;20.18;56.89
66524;BME280;53350;52.210;5.160;2022-07-10T08:31:50;102708.94;;;20.31;56.04
66524;BME280;53350;52.210;5.160;2022-07-10T08:34:16;102699.94;;;20.43;55.65
66524;BME280;53350;52.210;5.160;2022-07-10T08:36:43;102702.41;;;20.49;55.40
66524;BME280;53350;52.210;5.160;2022-07-10T08:39:09;102699.66;;;20.55;55.56
66524;BME280;53350;52.210;5.160;2022-07-10T08:41:36;102698.56;;;20.64;55.56
66524;BME280;53350;52.210;5.160;2022-07-10T08:44:04;102709.78;;;20.69;55.68
66524;BME280;53350;52.210;5.160;2022-07-10T08:46:31;102698.34;;;20.73;55.21
66524;BME280;53350;52.210;5.160;2022-07-10T08:48:59;102714.81;;;20.78;55.12
66524;BME280;53350;52.210;5.160;2022-07-10T08:51:35;102710.72;;;20.66;55.47
66524;BME280;53350;52.210;5.160;2022-07-10T08:54:04;102708.03;;;20.70;55.52
66524;BME280;53350;52.210;5.160;2022-07-10T08:56:31;102715.91;;;20.68;55.54
66524;BME280;53350;52.210;5.160;2022-07-10T08:58:59;102709.84;;;20.66;55.75
66524;BME280;53350;52.210;5.160;2022-07-10T09:01:28;102704.47;;;20.72;55.87
66524;BME280;53350;52.210;5.160;2022-07-10T09:03:54;102704.41;;;20.75;55.72
66524;BME280;53350;52.210;5.160;2022-07-10T09:06:20;102713.03;;;20.79;55.45
66524;BME280;53350;52.210;5.160;2022-07-10T09:09:01;102700.97;;;20.73;55.50
66524;BME280;53350;52.210;5.160;2022-07-10T09:11:28;102705.22;;;20.77;55.12
66524;BME280;53350;52.210;5.160;2022-07-10T09:13:58;102704.31;;;20.80;55.73
66524;BME280;53350;52.210;5.160;2022-07-10T09:16:25;102697.03;;;20.90;55.11
66524;BME280;53350;52.210;5.160;2022-07-10T09:18:54;102692.56;;;20.95;54.92
66524;BME280;53350;52.210;5.160;2022-07-10T09:21:21;102689.97;;;20.93;54.91
66524;BME280;53350;52.210;5.160;2022-07-10T09:23:48;102696.72;;;21.02;54.95
66524;BME280;53350;52.210;5.160;2022-07-10T09:26:15;102696.59;;;21.07;54.47
66524;BME280;53350;52.210;5.160;2022-07-10T09:28:43;102687.00;;;21.06;54.73
66524;BME280;53350;52.210;5.160;2022-07-10T09:31:09;102693.91;;;21.10;54.38
66524;BME280;53350;52.210;5.160;2022-07-10T09:33:36;102680.84;;;21.08;54.40
66524;BME280;53350;52.210;5.160;2022-07-10T09:36:08;102679.09;;;21.09;54.43
66524;BME280;53350;52.210;5.160;2022-07-10T09:38:51;102684.34;;;21.07;54.54
66524;BME280;53350;52.210;5.160;2022-07-10T09:41:20;102683.41;;;21.10;54.96
66524;BME280;53350;52.210;5.160;2022-07-10T09:43:48;102679.72;;;21.17;54.68
66524;BME280;53350;52.210;5.160;2022-07-10T09:46:15;102684.06;;;21.18;54.92
66524;BME280;53350;52.210;5.160;2022-07-10T09:48:42;102683.81;;;21.27;54.50
66524;BME280;53350;52.210;5.160;2022-07-10T09:51:11;102675.69;;;21.36;54.11
66524;BME280;53350;52.210;5.160;2022-07-10T09:53:39;102668.53;;;21.42;54.62
66524;BME280;53350;52.210;5.160;2022-07-10T09:56:07;102678.94;;;21.45;54.13
66524;BME280;53350;52.210;5.160;2022-07-10T09:58:34;102675.38;;;21.47;53.52
66524;BME280;53350;52.210;5.160;2022-07-10T10:01:02;102670.19;;;21.46;53.41
66524;BME280;53350;52.210;5.160;2022-07-10T10:03:33;102671.81;;;21.51;52.88
66524;BME280;53350;52.210;5.160;2022-07-10T10:06:03;102657.16;;;21.43;53.13
66524;BME280;53350;52.210;5.160;2022-07-10T10:08:32;102670.81;;;21.56;52.88
66524;BME280;53350;52.210;5.160;2022-07-10T10:11:04;102668.91;;;21.61;52.67
66524;BME280;53350;52.210;5.160;2022-07-10T10:13:34;102663.66;;;21.61;53.06
66524;BME280;53350;52.210;5.160;2022-07-10T10:16:02;102666.88;;;21.70;53.12
66524;BME280;53350;52.210;5.160;2022-07-10T10:18:28;102671.06;;;21.76;52.90
66524;BME280;53350;52.210;5.160;2022-07-10T10:20:55;102661.47;;;21.75;52.66
66524;BME280;53350;52.210;5.160;2022-07-10T10:23:22;102670.22;;;21.76;52.97
66524;BME280;53350;52.210;5.160;2022-07-10T10:25:53;102667.50;;;21.79;52.75
66524;BME280;53350;52.210;5.160;2022-07-10T10:28:21;102671.88;;;21.78;52.44
66524;BME280;53350;52.210;5.160;2022-07-10T10:30:50;102671.56;;;21.89;51.22
66524;BME280;53350;52.210;5.160;2022-07-10T10:33:43;102670.66;;;21.90;50.53
66524;BME280;53350;52.210;5.160;2022-07-10T10:36:12;102662.78;;;21.90;51.00
66524;BME280;53350;52.210;5.160;2022-07-10T10:41:26;102667.88;;;21.95;50.29
66524;BME280;53350;52.210;5.160;2022-07-10T10:44:20;102665.91;;;22.01;50.41
66524;BME280;53350;52.210;5.160;2022-07-10T10:46:56;102675.47;;;22.04;49.67
66524;BME280;53350;52.210;5.160;2022-07-10T10:49:26;102672.66;;;22.10;49.26
66524;BME280;53350;52.210;5.160;2022-07-10T10:52:13;102668.22;;;22.12;49.37
66524;BME280;53350;52.210;5.160;2022-07-10T10:54:59;102675.03;;;22.18;49.43
66524;BME280;53350;52.210;5.160;2022-07-10T10:57:37;102673.03;;;22.26;49.14
66524;BME280;53350;52.210;5.160;2022-07-10T11:00:06;102664.38;;;22.22;49.61
66524;BME280;53350;52.210;5.160;2022-07-10T11:02:35;102656.34;;;22.27;49.32
66524;BME280;53350;52.210;5.160;2022-07-10T11:05:40;102665.28;;;22.21;49.71
66524;BME280;53350;52.210;5.160;2022-07-10T11:08:10;102659.13;;;22.22;48.88
66524;BME280;53350;52.210;5.160;2022-07-10T11:10:39;102657.97;;;22.31;48.84
66524;BME280;53350;52.210;5.160;2022-07-10T11:13:09;102654.09;;;22.43;48.32
66524;BME280;53350;52.210;5.160;2022-07-10T11:15:37;102657.34;;;22.51;48.40
66524;BME280;53350;52.210;5.160;2022-07-10T11:18:05;102656.06;;;22.63;48.01
66524;BME280;53350;52.210;5.160;2022-07-10T11:20:34;102656.88;;;22.65;47.52
66524;BME280;53350;52.210;5.160;2022-07-10T11:25:51;102659.66;;;22.61;47.45
66524;BME280;53350;52.210;5.160;2022-07-10T11:28:46;102659.06;;;22.52;47.97
66524;BME280;53350;52.210;5.160;2022-07-10T11:31:15;102659.19;;;22.49;47.77
66524;BME280;53350;52.210;5.160;2022-07-10T11:33:43;102657.00;;;22.35;47.86
66524;BME280;53350;52.210;5.160;2022-07-10T11:36:12;102659.34;;;22.43;47.65
66524;BME280;53350;52.210;5.160;2022-07-10T11:38:39;102656.50;;;22.51;46.85
66524;BME280;53350;52.210;5.160;2022-07-10T11:41:12;102650.19;;;22.55;47.16
66524;BME280;53350;52.210;5.160;2022-07-10T11:43:47;102653.50;;;22.62;46.75
66524;BME280;53350;52.210;5.160;2022-07-10T11:46:13;102647.06;;;22.70;45.95
66524;BME280;53350;52.210;5.160;2022-07-10T11:48:40;102645.13;;;22.75;45.89
66524;BME280;53350;52.210;5.160;2022-07-10T11:51:16;102643.03;;;22.85;45.42
66524;BME280;53350;52.210;5.160;2022-07-10T11:53:52;102632.09;;;22.98;45.90
66524;BME280;53350;52.210;5.160;2022-07-10T11:56:19;102625.25;;;23.17;45.50
66524;BME280;53350;52.210;5.160;2022-07-10T11:58:54;102629.22;;;23.29;45.42
66524;BME280;53350;52.210;5.160;2022-07-10T12:01:21;102622.53;;;23.44;45.41
66524;BME280;53350;52.210;5.160;2022-07-10T12:03:56;102623.56;;;23.62;44.69
66524;BME280;53350;52.210;5.160;2022-07-10T12:06:23;102637.47;;;23.66;44.79
66524;BME280;53350;52.210;5.160;2022-07-10T12:08:50;102627.72;;;23.68;44.27
66524;BME280;53350;52.210;5.160;2022-07-10T12:11:18;102631.06;;;23.73;43.61
66524;BME280;53350;52.210;5.160;2022-07-10T12:13:46;102623.81;;;23.78;43.99
66524;BME280;53350;52.210;5.160;2022-07-10T12:16:14;102634.03;;;23.87;43.61
66524;BME280;53350;52.210;5.160;2022-07-10T12:18:41;102630.38;;;23.91;43.70
66524;BME280;53350;52.210;5.160;2022-07-10T12:21:08;102628.25;;;24.00;42.80
66524;BME280;53350;52.210;5.160;2022-07-10T12:23:35;102631.00;;;23.96;42.93
66524;BME280;53350;52.210;5.160;2022-07-10T12:26:04;102621.38;;;23.97;42.88
66524;BME280;53350;52.210;5.160;2022-07-10T12:28:48;102622.09;;;24.01;43.23
66524;BME280;53350;52.210;5.160;2022-07-10T12:31:21;102621.03;;;24.05;42.32
66524;BME280;53350;52.210;5.160;2022-07-10T12:33:52;102621.16;;;24.02;42.64
66524;BME280;53350;52.210;5.160;2022-07-10T12:36:20;102624.78;;;23.99;43.15
66524;BME280;53350;52.210;5.160;2022-07-10T12:38:53;102613.34;;;24.00;43.08
66524;BME280;53350;52.210;5.160;2022-07-10T12:41:21;102621.88;;;24.05;43.38
66524;BME280;53350;52.210;5.160;2022-07-10T12:43:50;102614.47;;;24.15;43.21
66524;BME280;53350;52.210;5.160;2022-07-10T12:46:18;102608.31;;;24.37;43.07
66524;BME280;53350;52.210;5.160;2022-07-10T12:49:04;102612.25;;;24.47;42.60
66524;BME280;53350;52.210;5.160;2022-07-10T12:51:32;102614.63;;;24.53;42.54
66524;BME280;53350;52.210;5.160;2022-07-10T12:53:59;102607.66;;;24.52;42.24
66524;BME280;53350;52.210;5.160;2022-07-10T12:56:30;102612.19;;;24.48;42.72
66524;BME280;53350;52.210;5.160;2022-07-10T12:58:58;102614.03;;;24.46;43.24
66524;BME280;53350;52.210;5.160;2022-07-10T13:01:26;102619.31;;;24.46;43.44